Terminal Aerodrome Forecast
Issued by NWS Lake Charles, LA

Home | Current Version | Previous Version | Text Only | Print | Product List | Glossary On
Versions: 1 2 3 4 5 6 7 8 9 10 11 12 13
000
FTUS44 KLCH 040549
TAFAEX
TAF
KAEX 040549Z 0406/0506 03010KT P6SM FEW004 OVC025
     FM040800 05010KT P6SM -RA OVC015
     FM041200 02006KT 4SM -RA BR OVC004
     FM041800 36006KT 1/4SM FG OVC007
     FM050000 36004KT 4SM -RA BR OVC004=

USA.gov is the U.S. government's official web portal to all federal, state and local government web resources and services.